sensor_id;sensor_type;location;lat;lon;timestamp;P1;durP1;ratioP1;P2;durP2;ratioP2
64498;SDS011;51087;55.718;21.122;2022-11-15T00:00:28;13.88;;;7.80;;
64498;SDS011;51087;55.718;21.122;2022-11-15T00:02:53;12.70;;;7.72;;
64498;SDS011;51087;55.718;21.122;2022-11-15T00:05:19;11.20;;;7.25;;
64498;SDS011;51087;55.718;21.122;2022-11-15T00:07:45;16.40;;;8.20;;
64498;SDS011;51087;55.718;21.122;2022-11-15T00:10:11;13.85;;;8.07;;
64498;SDS011;51087;55.718;21.122;2022-11-15T00:12:36;14.32;;;7.18;;
64498;SDS011;51087;55.718;21.122;2022-11-15T00:15:02;13.27;;;7.70;;
64498;SDS011;51087;55.718;21.122;2022-11-15T00:17:27;14.80;;;7.35;;
64498;SDS011;51087;55.718;21.122;2022-11-15T00:19:53;15.98;;;8.15;;
64498;SDS011;51087;55.718;21.122;2022-11-15T00:22:18;15.50;;;8.18;;
64498;SDS011;51087;55.718;21.122;2022-11-15T00:24:44;14.15;;;8.20;;
64498;SDS011;51087;55.718;21.122;2022-11-15T00:27:09;16.30;;;8.32;;
64498;SDS011;51087;55.718;21.122;2022-11-15T00:29:34;13.25;;;8.30;;
64498;SDS011;51087;55.718;21.122;2022-11-15T00:32:02;13.88;;;8.52;;
64498;SDS011;51087;55.718;21.122;2022-11-15T00:34:27;13.25;;;8.48;;
64498;SDS011;51087;55.718;21.122;2022-11-15T00:36:53;15.73;;;8.13;;
64498;SDS011;51087;55.718;21.122;2022-11-15T00:39:18;17.13;;;8.30;;
64498;SDS011;51087;55.718;21.122;2022-11-15T00:41:43;13.65;;;8.07;;
64498;SDS011;51087;55.718;21.122;2022-11-15T00:44:09;16.02;;;8.80;;
64498;SDS011;51087;55.718;21.122;2022-11-15T00:46:34;14.63;;;8.15;;
64498;SDS011;51087;55.718;21.122;2022-11-15T00:49:00;18.10;;;9.07;;
64498;SDS011;51087;55.718;21.122;2022-11-15T00:51:25;16.67;;;9.13;;
64498;SDS011;51087;55.718;21.122;2022-11-15T00:53:50;14.65;;;8.25;;
64498;SDS011;51087;55.718;21.122;2022-11-15T00:56:16;16.85;;;8.70;;
64498;SDS011;51087;55.718;21.122;2022-11-15T00:58:41;13.88;;;8.80;;
64498;SDS011;51087;55.718;21.122;2022-11-15T01:01:07;20.30;;;8.98;;
64498;SDS011;51087;55.718;21.122;2022-11-15T01:03:40;15.85;;;8.63;;
64498;SDS011;51087;55.718;21.122;2022-11-15T01:06:06;17.13;;;8.90;;
64498;SDS011;51087;55.718;21.122;2022-11-15T01:08:33;17.25;;;8.98;;
64498;SDS011;51087;55.718;21.122;2022-11-15T01:11:02;18.25;;;9.60;;
64498;SDS011;51087;55.718;21.122;2022-11-15T01:13:29;14.38;;;9.18;;
64498;SDS011;51087;55.718;21.122;2022-11-15T01:15:56;16.38;;;9.27;;
64498;SDS011;51087;55.718;21.122;2022-11-15T01:18:22;15.80;;;9.85;;
64498;SDS011;51087;55.718;21.122;2022-11-15T01:20:47;17.50;;;9.93;;
64498;SDS011;51087;55.718;21.122;2022-11-15T01:23:13;17.92;;;9.85;;
64498;SDS011;51087;55.718;21.122;2022-11-15T01:25:41;21.50;;;10.15;;
64498;SDS011;51087;55.718;21.122;2022-11-15T01:28:07;21.60;;;10.15;;
64498;SDS011;51087;55.718;21.122;2022-11-15T01:30:32;17.65;;;9.60;;
64498;SDS011;51087;55.718;21.122;2022-11-15T01:32:58;17.73;;;10.05;;
64498;SDS011;51087;55.718;21.122;2022-11-15T01:35:23;17.13;;;10.00;;
64498;SDS011;51087;55.718;21.122;2022-11-15T01:37:49;14.68;;;9.15;;
64498;SDS011;51087;55.718;21.122;2022-11-15T01:40:14;16.98;;;10.38;;
64498;SDS011;51087;55.718;21.122;2022-11-15T01:42:40;18.85;;;9.90;;
64498;SDS011;51087;55.718;21.122;2022-11-15T01:45:05;15.43;;;10.18;;
64498;SDS011;51087;55.718;21.122;2022-11-15T01:47:35;16.27;;;10.13;;
64498;SDS011;51087;55.718;21.122;2022-11-15T01:50:10;21.13;;;11.05;;
64498;SDS011;51087;55.718;21.122;2022-11-15T01:52:39;17.48;;;10.82;;
64498;SDS011;51087;55.718;21.122;2022-11-15T01:58:01;18.02;;;11.32;;
64498;SDS011;51087;55.718;21.122;2022-11-15T02:00:29;19.90;;;11.02;;
64498;SDS011;51087;55.718;21.122;2022-11-15T02:02:55;19.20;;;10.98;;
64498;SDS011;51087;55.718;21.122;2022-11-15T02:05:20;17.92;;;10.18;;
64498;SDS011;51087;55.718;21.122;2022-11-15T02:07:46;18.95;;;11.18;;
64498;SDS011;51087;55.718;21.122;2022-11-15T02:10:16;20.90;;;11.48;;
64498;SDS011;51087;55.718;21.122;2022-11-15T02:12:45;20.48;;;11.85;;
64498;SDS011;51087;55.718;21.122;2022-11-15T02:15:11;21.45;;;11.52;;
64498;SDS011;51087;55.718;21.122;2022-11-15T02:17:47;18.00;;;11.80;;
64498;SDS011;51087;55.718;21.122;2022-11-15T02:20:57;19.20;;;11.95;;
64498;SDS011;51087;55.718;21.122;2022-11-15T02:26:52;20.80;;;11.82;;
64498;SDS011;51087;55.718;21.122;2022-11-15T02:32:20;21.48;;;12.13;;
64498;SDS011;51087;55.718;21.122;2022-11-15T02:35:23;19.05;;;11.77;;
64498;SDS011;51087;55.718;21.122;2022-11-15T02:38:04;22.10;;;12.38;;
64498;SDS011;51087;55.718;21.122;2022-11-15T02:41:01;22.73;;;12.88;;
64498;SDS011;51087;55.718;21.122;2022-11-15T02:43:39;19.65;;;12.70;;
64498;SDS011;51087;55.718;21.122;2022-11-15T02:46:23;23.17;;;13.00;;
64498;SDS011;51087;55.718;21.122;2022-11-15T02:49:12;23.45;;;13.30;;
64498;SDS011;51087;55.718;21.122;2022-11-15T02:51:39;22.38;;;13.27;;
64498;SDS011;51087;55.718;21.122;2022-11-15T02:54:06;20.63;;;12.38;;
64498;SDS011;51087;55.718;21.122;2022-11-15T02:56:32;21.75;;;13.38;;
64498;SDS011;51087;55.718;21.122;2022-11-15T03:01:30;22.67;;;13.40;;
64498;SDS011;51087;55.718;21.122;2022-11-15T03:11:59;23.05;;;13.38;;
64498;SDS011;51087;55.718;21.122;2022-11-15T03:15:16;25.05;;;14.60;;
64498;SDS011;51087;55.718;21.122;2022-11-15T03:20:32;20.92;;;12.27;;
64498;SDS011;51087;55.718;21.122;2022-11-15T03:23:06;23.00;;;13.23;;
64498;SDS011;51087;55.718;21.122;2022-11-15T03:25:35;22.55;;;13.50;;
64498;SDS011;51087;55.718;21.122;2022-11-15T03:28:03;24.45;;;14.18;;
64498;SDS011;51087;55.718;21.122;2022-11-15T03:30:32;21.05;;;13.70;;
64498;SDS011;51087;55.718;21.122;2022-11-15T03:33:00;23.25;;;13.57;;
64498;SDS011;51087;55.718;21.122;2022-11-15T03:35:30;23.33;;;12.98;;
64498;SDS011;51087;55.718;21.122;2022-11-15T03:40:40;21.80;;;14.02;;
64498;SDS011;51087;55.718;21.122;2022-11-15T03:46:12;24.40;;;13.15;;
64498;SDS011;51087;55.718;21.122;2022-11-15T03:48:42;27.48;;;14.23;;
64498;SDS011;51087;55.718;21.122;2022-11-15T03:51:11;21.55;;;13.75;;
64498;SDS011;51087;55.718;21.122;2022-11-15T03:53:38;23.88;;;14.65;;
64498;SDS011;51087;55.718;21.122;2022-11-15T03:56:03;24.52;;;13.95;;
64498;SDS011;51087;55.718;21.122;2022-11-15T03:58:29;27.55;;;14.80;;
64498;SDS011;51087;55.718;21.122;2022-11-15T04:00:54;25.23;;;14.70;;
64498;SDS011;51087;55.718;21.122;2022-11-15T04:03:20;21.83;;;13.27;;
64498;SDS011;51087;55.718;21.122;2022-11-15T04:05:45;26.38;;;14.63;;
64498;SDS011;51087;55.718;21.122;2022-11-15T04:08:10;26.48;;;14.63;;
64498;SDS011;51087;55.718;21.122;2022-11-15T04:10:36;27.33;;;14.88;;
64498;SDS011;51087;55.718;21.122;2022-11-15T04:13:02;25.60;;;14.13;;
64498;SDS011;51087;55.718;21.122;2022-11-15T04:15:27;26.20;;;14.93;;
64498;SDS011;51087;55.718;21.122;2022-11-15T04:17:54;25.05;;;14.07;;
64498;SDS011;51087;55.718;21.122;2022-11-15T04:23:14;24.27;;;14.05;;
64498;SDS011;51087;55.718;21.122;2022-11-15T04:26:04;25.30;;;14.38;;
64498;SDS011;51087;55.718;21.122;2022-11-15T04:28:32;27.95;;;15.77;;
64498;SDS011;51087;55.718;21.122;2022-11-15T04:30:58;32.50;;;17.50;;
64498;SDS011;51087;55.718;21.122;2022-11-15T04:33:23;28.38;;;16.40;;
64498;SDS011;51087;55.718;21.122;2022-11-15T04:35:49;29.55;;;15.18;;
64498;SDS011;51087;55.718;21.122;2022-11-15T04:38:33;25.27;;;15.05;;
64498;SDS011;51087;55.718;21.122;2022-11-15T04:41:00;26.08;;;15.10;;
64498;SDS011;51087;55.718;21.122;2022-11-15T04:43:25;27.13;;;15.02;;
64498;SDS011;51087;55.718;21.122;2022-11-15T04:45:51;27.20;;;15.45;;
64498;SDS011;51087;55.718;21.122;2022-11-15T04:48:16;27.15;;;15.20;;
64498;SDS011;51087;55.718;21.122;2022-11-15T04:50:42;25.17;;;14.55;;
64498;SDS011;51087;55.718;21.122;2022-11-15T04:53:07;28.85;;;14.90;;
64498;SDS011;51087;55.718;21.122;2022-11-15T04:55:32;29.48;;;15.68;;
64498;SDS011;51087;55.718;21.122;2022-11-15T04:57:59;28.85;;;14.48;;
64498;SDS011;51087;55.718;21.122;2022-11-15T05:00:25;25.27;;;15.00;;
64498;SDS011;51087;55.718;21.122;2022-11-15T05:02:51;23.50;;;14.27;;
64498;SDS011;51087;55.718;21.122;2022-11-15T05:05:36;26.13;;;14.50;;
64498;SDS011;51087;55.718;21.122;2022-11-15T05:08:01;26.10;;;14.85;;
64498;SDS011;51087;55.718;21.122;2022-11-15T05:10:27;28.73;;;15.27;;
64498;SDS011;51087;55.718;21.122;2022-11-15T05:12:52;27.33;;;14.80;;
64498;SDS011;51087;55.718;21.122;2022-11-15T05:15:18;24.08;;;14.32;;
64498;SDS011;51087;55.718;21.122;2022-11-15T05:17:43;30.85;;;15.40;;
64498;SDS011;51087;55.718;21.122;2022-11-15T05:20:09;25.75;;;14.80;;
64498;SDS011;51087;55.718;21.122;2022-11-15T05:22:35;29.83;;;16.08;;
64498;SDS011;51087;55.718;21.122;2022-11-15T05:25:00;29.77;;;16.10;;
64498;SDS011;51087;55.718;21.122;2022-11-15T05:27:26;26.33;;;15.15;;
64498;SDS011;51087;55.718;21.122;2022-11-15T05:29:51;33.92;;;16.27;;
64498;SDS011;51087;55.718;21.122;2022-11-15T05:32:16;31.00;;;15.70;;
64498;SDS011;51087;55.718;21.122;2022-11-15T05:34:43;28.42;;;15.60;;
64498;SDS011;51087;55.718;21.122;2022-11-15T05:37:08;28.55;;;16.63;;
64498;SDS011;51087;55.718;21.122;2022-11-15T05:39:34;24.30;;;15.23;;
64498;SDS011;51087;55.718;21.122;2022-11-15T05:42:12;32.53;;;16.60;;
64498;SDS011;51087;55.718;21.122;2022-11-15T05:44:41;30.67;;;16.42;;
64498;SDS011;51087;55.718;21.122;2022-11-15T05:47:11;29.40;;;15.82;;
64498;SDS011;51087;55.718;21.122;2022-11-15T05:49:42;30.27;;;16.83;;
64498;SDS011;51087;55.718;21.122;2022-11-15T05:52:09;28.90;;;16.27;;
64498;SDS011;51087;55.718;21.122;2022-11-15T05:54:38;37.65;;;18.38;;
64498;SDS011;51087;55.718;21.122;2022-11-15T05:57:04;32.42;;;17.52;;
64498;SDS011;51087;55.718;21.122;2022-11-15T05:59:30;39.22;;;16.80;;
64498;SDS011;51087;55.718;21.122;2022-11-15T06:01:57;30.38;;;16.55;;
64498;SDS011;51087;55.718;21.122;2022-11-15T06:04:23;35.05;;;16.83;;
64498;SDS011;51087;55.718;21.122;2022-11-15T06:06:49;32.75;;;17.13;;
64498;SDS011;51087;55.718;21.122;2022-11-15T06:09:14;32.38;;;16.95;;
64498;SDS011;51087;55.718;21.122;2022-11-15T06:11:39;32.97;;;17.38;;
64498;SDS011;51087;55.718;21.122;2022-11-15T06:14:05;28.33;;;16.92;;
64498;SDS011;51087;55.718;21.122;2022-11-15T06:16:30;29.45;;;17.02;;
64498;SDS011;51087;55.718;21.122;2022-11-15T06:18:56;34.90;;;17.02;;
64498;SDS011;51087;55.718;21.122;2022-11-15T06:21:21;35.45;;;17.60;;
64498;SDS011;51087;55.718;21.122;2022-11-15T06:23:47;38.70;;;18.85;;
64498;SDS011;51087;55.718;21.122;2022-11-15T06:26:13;37.70;;;19.40;;
64498;SDS011;51087;55.718;21.122;2022-11-15T06:28:38;39.25;;;20.55;;
64498;SDS011;51087;55.718;21.122;2022-11-15T06:31:04;36.30;;;17.75;;
64498;SDS011;51087;55.718;21.122;2022-11-15T06:33:31;46.90;;;20.17;;
64498;SDS011;51087;55.718;21.122;2022-11-15T06:35:59;45.08;;;21.08;;
64498;SDS011;51087;55.718;21.122;2022-11-15T06:38:28;39.83;;;19.77;;
64498;SDS011;51087;55.718;21.122;2022-11-15T06:40:54;32.55;;;17.00;;
64498;SDS011;51087;55.718;21.122;2022-11-15T06:43:20;36.95;;;18.35;;
64498;SDS011;51087;55.718;21.122;2022-11-15T06:45:45;36.22;;;18.30;;
64498;SDS011;51087;55.718;21.122;2022-11-15T06:48:11;36.67;;;17.23;;
64498;SDS011;51087;55.718;21.122;2022-11-15T06:50:36;35.13;;;18.33;;
64498;SDS011;51087;55.718;21.122;2022-11-15T06:53:03;32.05;;;16.92;;
64498;SDS011;51087;55.718;21.122;2022-11-15T06:55:28;29.33;;;16.35;;
64498;SDS011;51087;55.718;21.122;2022-11-15T06:57:54;34.33;;;17.60;;
64498;SDS011;51087;55.718;21.122;2022-11-15T07:00:20;31.92;;;16.45;;
64498;SDS011;51087;55.718;21.122;2022-11-15T07:02:47;33.67;;;16.90;;
64498;SDS011;51087;55.718;21.122;2022-11-15T07:05:12;31.05;;;16.02;;
64498;SDS011;51087;55.718;21.122;2022-11-15T07:07:39;29.08;;;16.27;;
64498;SDS011;51087;55.718;21.122;2022-11-15T07:10:05;40.55;;;16.90;;
64498;SDS011;51087;55.718;21.122;2022-11-15T07:12:31;26.63;;;15.50;;
64498;SDS011;51087;55.718;21.122;2022-11-15T07:14:56;29.20;;;15.10;;
64498;SDS011;51087;55.718;21.122;2022-11-15T07:17:22;29.45;;;15.77;;
64498;SDS011;51087;55.718;21.122;2022-11-15T07:19:47;26.65;;;15.55;;
64498;SDS011;51087;55.718;21.122;2022-11-15T07:22:12;29.65;;;15.82;;
64498;SDS011;51087;55.718;21.122;2022-11-15T07:24:38;25.08;;;14.85;;
64498;SDS011;51087;55.718;21.122;2022-11-15T07:27:03;28.83;;;15.27;;
64498;SDS011;51087;55.718;21.122;2022-11-15T07:29:29;26.77;;;14.93;;
64498;SDS011;51087;55.718;21.122;2022-11-15T07:31:54;30.60;;;15.02;;
64498;SDS011;51087;55.718;21.122;2022-11-15T07:34:20;28.67;;;15.10;;
64498;SDS011;51087;55.718;21.122;2022-11-15T07:36:45;31.35;;;15.68;;
64498;SDS011;51087;55.718;21.122;2022-11-15T07:39:10;27.58;;;15.20;;
64498;SDS011;51087;55.718;21.122;2022-11-15T07:41:37;28.48;;;15.38;;
64498;SDS011;51087;55.718;21.122;2022-11-15T07:44:03;31.10;;;15.52;;
64498;SDS011;51087;55.718;21.122;2022-11-15T07:46:29;29.23;;;15.57;;
64498;SDS011;51087;55.718;21.122;2022-11-15T07:48:56;31.23;;;15.48;;
64498;SDS011;51087;55.718;21.122;2022-11-15T07:51:21;25.48;;;15.23;;
64498;SDS011;51087;55.718;21.122;2022-11-15T07:53:46;27.08;;;15.55;;
64498;SDS011;51087;55.718;21.122;2022-11-15T07:56:12;30.73;;;15.55;;
64498;SDS011;51087;55.718;21.122;2022-11-15T07:58:37;34.85;;;15.77;;
64498;SDS011;51087;55.718;21.122;2022-11-15T08:01:03;39.03;;;16.42;;
64498;SDS011;51087;55.718;21.122;2022-11-15T08:03:30;30.60;;;15.18;;
64498;SDS011;51087;55.718;21.122;2022-11-15T08:05:55;30.08;;;15.65;;
64498;SDS011;51087;55.718;21.122;2022-11-15T08:08:21;35.13;;;17.38;;
64498;SDS011;51087;55.718;21.122;2022-11-15T08:10:46;54.30;;;18.77;;
64498;SDS011;51087;55.718;21.122;2022-11-15T08:13:12;37.97;;;17.30;;
64498;SDS011;51087;55.718;21.122;2022-11-15T08:15:38;40.00;;;19.77;;
64498;SDS011;51087;55.718;21.122;2022-11-15T08:18:05;35.03;;;18.85;;
64498;SDS011;51087;55.718;21.122;2022-11-15T08:20:33;44.50;;;17.80;;
64498;SDS011;51087;55.718;21.122;2022-11-15T08:22:59;43.67;;;17.25;;
64498;SDS011;51087;55.718;21.122;2022-11-15T08:25:27;36.10;;;16.10;;
64498;SDS011;51087;55.718;21.122;2022-11-15T08:27:54;31.00;;;16.73;;
64498;SDS011;51087;55.718;21.122;2022-11-15T08:30:22;34.40;;;16.63;;
64498;SDS011;51087;55.718;21.122;2022-11-15T08:32:48;30.52;;;16.45;;
64498;SDS011;51087;55.718;21.122;2022-11-15T08:35:14;34.70;;;16.98;;
64498;SDS011;51087;55.718;21.122;2022-11-15T08:37:39;44.55;;;16.85;;
64498;SDS011;51087;55.718;21.122;2022-11-15T08:40:05;40.60;;;16.45;;
64498;SDS011;51087;55.718;21.122;2022-11-15T08:42:31;42.20;;;16.63;;
64498;SDS011;51087;55.718;21.122;2022-11-15T08:44:56;41.33;;;17.45;;
64498;SDS011;51087;55.718;21.122;2022-11-15T08:47:22;46.25;;;17.38;;
64498;SDS011;51087;55.718;21.122;2022-11-15T08:49:48;37.60;;;16.50;;
64498;SDS011;51087;55.718;21.122;2022-11-15T08:52:14;37.85;;;16.92;;
64498;SDS011;51087;55.718;21.122;2022-11-15T08:54:39;41.13;;;15.90;;
64498;SDS011;51087;55.718;21.122;2022-11-15T08:57:05;32.17;;;15.60;;
64498;SDS011;51087;55.718;21.122;2022-11-15T08:59:31;39.80;;;17.23;;
64498;SDS011;51087;55.718;21.122;2022-11-15T09:01:57;32.92;;;15.77;;
64498;SDS011;51087;55.718;21.122;2022-11-15T09:04:22;37.33;;;16.80;;
64498;SDS011;51087;55.718;21.122;2022-11-15T09:06:48;39.60;;;19.20;;
64498;SDS011;51087;55.718;21.122;2022-11-15T09:09:14;32.05;;;16.40;;
64498;SDS011;51087;55.718;21.122;2022-11-15T09:11:39;38.65;;;17.60;;
64498;SDS011;51087;55.718;21.122;2022-11-15T09:14:04;42.95;;;21.48;;
64498;SDS011;51087;55.718;21.122;2022-11-15T09:16:30;59.90;;;27.85;;
64498;SDS011;51087;55.718;21.122;2022-11-15T09:18:56;57.22;;;27.20;;
64498;SDS011;51087;55.718;21.122;2022-11-15T09:21:22;60.50;;;28.50;;
64498;SDS011;51087;55.718;21.122;2022-11-15T09:23:50;60.10;;;28.60;;
64498;SDS011;51087;55.718;21.122;2022-11-15T09:26:17;53.95;;;24.73;;
64498;SDS011;51087;55.718;21.122;2022-11-15T09:28:42;49.03;;;27.13;;
64498;SDS011;51087;55.718;21.122;2022-11-15T09:31:08;49.47;;;23.60;;
64498;SDS011;51087;55.718;21.122;2022-11-15T09:33:34;39.53;;;19.58;;
64498;SDS011;51087;55.718;21.122;2022-11-15T09:36:01;42.85;;;20.50;;
64498;SDS011;51087;55.718;21.122;2022-11-15T09:38:28;39.88;;;20.88;;
64498;SDS011;51087;55.718;21.122;2022-11-15T09:40:57;38.85;;;19.73;;
64498;SDS011;51087;55.718;21.122;2022-11-15T09:49:24;39.53;;;17.90;;
64498;SDS011;51087;55.718;21.122;2022-11-15T09:51:51;38.90;;;18.70;;
64498;SDS011;51087;55.718;21.122;2022-11-15T09:57:04;35.45;;;18.05;;
64498;SDS011;51087;55.718;21.122;2022-11-15T09:59:48;34.70;;;18.73;;
64498;SDS011;51087;55.718;21.122;2022-11-15T10:05:07;33.75;;;17.85;;
64498;SDS011;51087;55.718;21.122;2022-11-15T10:07:44;44.10;;;19.70;;
64498;SDS011;51087;55.718;21.122;2022-11-15T10:13:33;32.80;;;17.88;;
64498;SDS011;51087;55.718;21.122;2022-11-15T10:16:24;34.47;;;18.08;;
64498;SDS011;51087;55.718;21.122;2022-11-15T10:18:53;40.42;;;17.55;;
64498;SDS011;51087;55.718;21.122;2022-11-15T10:21:58;35.30;;;18.20;;
64498;SDS011;51087;55.718;21.122;2022-11-15T10:24:39;41.25;;;19.35;;
64498;SDS011;51087;55.718;21.122;2022-11-15T10:27:11;49.03;;;20.10;;
64498;SDS011;51087;55.718;21.122;2022-11-15T10:29:44;46.72;;;20.08;;
64498;SDS011;51087;55.718;21.122;2022-11-15T10:32:14;50.63;;;22.00;;
64498;SDS011;51087;55.718;21.122;2022-11-15T10:34:46;46.63;;;22.15;;
64498;SDS011;51087;55.718;21.122;2022-11-15T10:37:12;42.10;;;20.95;;
64498;SDS011;51087;55.718;21.122;2022-11-15T10:39:38;45.80;;;22.00;;
64498;SDS011;51087;55.718;21.122;2022-11-15T10:44:52;50.63;;;21.35;;
64498;SDS011;51087;55.718;21.122;2022-11-15T10:47:27;52.35;;;21.48;;
64498;SDS011;51087;55.718;21.122;2022-11-15T10:52:56;45.97;;;20.38;;
64498;SDS011;51087;55.718;21.122;2022-11-15T10:55:27;49.70;;;19.00;;
64498;SDS011;51087;55.718;21.122;2022-11-15T10:58:05;47.33;;;19.45;;
64498;SDS011;51087;55.718;21.122;2022-11-15T11:00:44;38.45;;;18.45;;
64498;SDS011;51087;55.718;21.122;2022-11-15T11:03:28;38.92;;;18.80;;
64498;SDS011;51087;55.718;21.122;2022-11-15T11:06:05;38.80;;;16.88;;
64498;SDS011;51087;55.718;21.122;2022-11-15T11:08:31;35.85;;;17.38;;
64498;SDS011;51087;55.718;21.122;2022-11-15T11:10:58;44.20;;;17.20;;
64498;SDS011;51087;55.718;21.122;2022-11-15T11:13:29;31.17;;;16.75;;
64498;SDS011;51087;55.718;21.122;2022-11-15T11:21:34;30.27;;;17.45;;
64498;SDS011;51087;55.718;21.122;2022-11-15T11:24:18;45.55;;;19.30;;
64498;SDS011;51087;55.718;21.122;2022-11-15T11:37:54;26.48;;;11.50;;
64498;SDS011;51087;55.718;21.122;2022-11-15T11:40:28;26.00;;;10.85;;
64498;SDS011;51087;55.718;21.122;2022-11-15T11:45:47;13.30;;;6.70;;
64498;SDS011;51087;55.718;21.122;2022-11-15T11:48:31;20.20;;;10.70;;
64498;SDS011;51087;55.718;21.122;2022-11-15T11:51:17;40.95;;;18.08;;
64498;SDS011;51087;55.718;21.122;2022-11-15T11:53:53;30.23;;;15.18;;
64498;SDS011;51087;55.718;21.122;2022-11-15T11:56:26;36.78;;;17.52;;
64498;SDS011;51087;55.718;21.122;2022-11-15T11:58:54;51.17;;;23.58;;
64498;SDS011;51087;55.718;21.122;2022-11-15T12:01:26;32.35;;;17.33;;
64498;SDS011;51087;55.718;21.122;2022-11-15T12:04:32;27.40;;;14.20;;
64498;SDS011;51087;55.718;21.122;2022-11-15T12:07:07;29.80;;;15.32;;
64498;SDS011;51087;55.718;21.122;2022-11-15T12:09:58;30.83;;;15.05;;
64498;SDS011;51087;55.718;21.122;2022-11-15T12:12:49;27.60;;;15.18;;
64498;SDS011;51087;55.718;21.122;2022-11-15T12:15:18;28.52;;;14.70;;
64498;SDS011;51087;55.718;21.122;2022-11-15T12:18:08;25.58;;;13.25;;
64498;SDS011;51087;55.718;21.122;2022-11-15T12:20:39;21.92;;;11.98;;
64498;SDS011;51087;55.718;21.122;2022-11-15T12:23:16;22.38;;;11.80;;
64498;SDS011;51087;55.718;21.122;2022-11-15T12:28:52;20.15;;;11.25;;
64498;SDS011;51087;55.718;21.122;2022-11-15T12:34:00;26.35;;;11.90;;
64498;SDS011;51087;55.718;21.122;2022-11-15T12:39:13;15.52;;;8.70;;
64498;SDS011;51087;55.718;21.122;2022-11-15T12:41:40;19.42;;;8.95;;
64498;SDS011;51087;55.718;21.122;2022-11-15T12:44:11;12.18;;;7.60;;
64498;SDS011;51087;55.718;21.122;2022-11-15T13:02:37;12.27;;;4.97;;
64498;SDS011;51087;55.718;21.122;2022-11-15T13:17:40;8.88;;;5.32;;
64498;SDS011;51087;55.718;21.122;2022-11-15T13:20:17;11.13;;;5.47;;
64498;SDS011;51087;55.718;21.122;2022-11-15T13:28:27;12.75;;;3.65;;
64498;SDS011;51087;55.718;21.122;2022-11-15T13:31:29;9.32;;;3.20;;
64498;SDS011;51087;55.718;21.122;2022-11-15T13:34:02;7.85;;;2.60;;
64498;SDS011;51087;55.718;21.122;2022-11-15T13:36:39;6.93;;;2.83;;
64498;SDS011;51087;55.718;21.122;2022-11-15T13:39:11;7.90;;;2.38;;
64498;SDS011;51087;55.718;21.122;2022-11-15T13:41:49;5.53;;;3.25;;
64498;SDS011;51087;55.718;21.122;2022-11-15T13:44:23;11.13;;;3.50;;
64498;SDS011;51087;55.718;21.122;2022-11-15T13:49:31;8.57;;;3.72;;
64498;SDS011;51087;55.718;21.122;2022-11-15T13:51:57;9.38;;;4.20;;
64498;SDS011;51087;55.718;21.122;2022-11-15T13:57:04;13.23;;;4.85;;
64498;SDS011;51087;55.718;21.122;2022-11-15T14:00:30;12.55;;;5.40;;
64498;SDS011;51087;55.718;21.122;2022-11-15T14:02:47;9.30;;;5.50;;
64498;SDS011;51087;55.718;21.122;2022-11-15T14:05:14;12.23;;;6.63;;
64498;SDS011;51087;55.718;21.122;2022-11-15T14:07:56;11.75;;;5.97;;
64498;SDS011;51087;55.718;21.122;2022-11-15T14:12:51;13.32;;;6.75;;
64498;SDS011;51087;55.718;21.122;2022-11-15T14:15:19;11.93;;;6.40;;
64498;SDS011;51087;55.718;21.122;2022-11-15T14:17:49;11.82;;;6.43;;
64498;SDS011;51087;55.718;21.122;2022-11-15T14:20:29;14.02;;;7.20;;
64498;SDS011;51087;55.718;21.122;2022-11-15T14:22:56;14.35;;;7.18;;
64498;SDS011;51087;55.718;21.122;2022-11-15T14:25:24;13.23;;;6.80;;
64498;SDS011;51087;55.718;21.122;2022-11-15T14:30:32;15.63;;;7.38;;
64498;SDS011;51087;55.718;21.122;2022-11-15T14:32:58;15.85;;;7.32;;
64498;SDS011;51087;55.718;21.122;2022-11-15T14:35:23;14.25;;;7.53;;
64498;SDS011;51087;55.718;21.122;2022-11-15T14:37:49;15.73;;;7.57;;
64498;SDS011;51087;55.718;21.122;2022-11-15T14:40:19;14.40;;;7.60;;
64498;SDS011;51087;55.718;21.122;2022-11-15T14:42:46;15.27;;;8.10;;
64498;SDS011;51087;55.718;21.122;2022-11-15T14:45:20;16.40;;;8.50;;
64498;SDS011;51087;55.718;21.122;2022-11-15T14:47:46;18.67;;;8.60;;
64498;SDS011;51087;55.718;21.122;2022-11-15T14:50:13;16.65;;;8.38;;
64498;SDS011;51087;55.718;21.122;2022-11-15T14:52:43;18.52;;;7.95;;
64498;SDS011;51087;55.718;21.122;2022-11-15T14:57:49;15.48;;;7.57;;
64498;SDS011;51087;55.718;21.122;2022-11-15T15:00:14;14.52;;;7.90;;
64498;SDS011;51087;55.718;21.122;2022-11-15T15:02:41;18.92;;;8.43;;
64498;SDS011;51087;55.718;21.122;2022-11-15T15:05:24;26.52;;;8.57;;
64498;SDS011;51087;55.718;21.122;2022-11-15T15:07:50;17.80;;;8.52;;
64498;SDS011;51087;55.718;21.122;2022-11-15T15:10:19;15.88;;;8.15;;
64498;SDS011;51087;55.718;21.122;2022-11-15T15:12:45;19.15;;;8.98;;
64498;SDS011;51087;55.718;21.122;2022-11-15T15:15:21;16.98;;;7.75;;
64498;SDS011;51087;55.718;21.122;2022-11-15T15:17:49;18.67;;;8.25;;
64498;SDS011;51087;55.718;21.122;2022-11-15T15:20:14;16.00;;;7.68;;
64498;SDS011;51087;55.718;21.122;2022-11-15T15:22:40;16.17;;;8.10;;
64498;SDS011;51087;55.718;21.122;2022-11-15T15:25:19;17.65;;;7.47;;
64498;SDS011;51087;55.718;21.122;2022-11-15T15:27:45;16.50;;;7.65;;
64498;SDS011;51087;55.718;21.122;2022-11-15T15:30:10;19.23;;;7.38;;
64498;SDS011;51087;55.718;21.122;2022-11-15T15:32:36;19.70;;;8.50;;
64498;SDS011;51087;55.718;21.122;2022-11-15T15:35:01;19.77;;;7.95;;
64498;SDS011;51087;55.718;21.122;2022-11-15T15:37:27;19.90;;;7.93;;
64498;SDS011;51087;55.718;21.122;2022-11-15T15:39:55;15.90;;;7.38;;
64498;SDS011;51087;55.718;21.122;2022-11-15T15:42:22;16.52;;;8.05;;
64498;SDS011;51087;55.718;21.122;2022-11-15T15:44:48;18.77;;;8.45;;
64498;SDS011;51087;55.718;21.122;2022-11-15T15:47:15;20.67;;;8.40;;
64498;SDS011;51087;55.718;21.122;2022-11-15T15:49:45;25.08;;;9.32;;
64498;SDS011;51087;55.718;21.122;2022-11-15T15:52:11;19.45;;;9.25;;
64498;SDS011;51087;55.718;21.122;2022-11-15T15:54:37;21.70;;;9.43;;
64498;SDS011;51087;55.718;21.122;2022-11-15T15:57:03;20.48;;;8.73;;
64498;SDS011;51087;55.718;21.122;2022-11-15T15:59:28;18.48;;;8.93;;
64498;SDS011;51087;55.718;21.122;2022-11-15T16:01:54;18.42;;;9.15;;
64498;SDS011;51087;55.718;21.122;2022-11-15T16:04:19;18.60;;;8.23;;
64498;SDS011;51087;55.718;21.122;2022-11-15T16:06:45;20.95;;;9.40;;
64498;SDS011;51087;55.718;21.122;2022-11-15T16:09:12;15.05;;;8.50;;
64498;SDS011;51087;55.718;21.122;2022-11-15T16:11:39;16.33;;;7.47;;
64498;SDS011;51087;55.718;21.122;2022-11-15T16:14:05;14.45;;;7.93;;
64498;SDS011;51087;55.718;21.122;2022-11-15T16:16:34;16.27;;;6.93;;
64498;SDS011;51087;55.718;21.122;2022-11-15T16:19:00;14.25;;;6.57;;
64498;SDS011;51087;55.718;21.122;2022-11-15T16:21:26;12.25;;;5.65;;
64498;SDS011;51087;55.718;21.122;2022-11-15T16:23:52;11.23;;;5.45;;
64498;SDS011;51087;55.718;21.122;2022-11-15T16:26:27;15.35;;;6.07;;
64498;SDS011;51087;55.718;21.122;2022-11-15T16:28:54;15.57;;;6.55;;
64498;SDS011;51087;55.718;21.122;2022-11-15T16:31:20;21.90;;;6.47;;